Time;durP1;ratioP1;P1;durP2;ratioP2;P2;SDS_P1;SDS_P2;PMS_P1;PMS_P2;Temp;Humidity;BMP_temperature;BMP_pressure;BME280_temperature;BME280_humidity;BME280_pressure;Samples;Min_cycle;Max_cycle;Signal;HPM_P1;HPM_P2
2021/04/01 00:04:13;;;;;;;;;;;9.90;99.90;;;;;;10354168;28;19927;-91
2021/04/01 00:09:15;;;;;;;;;;;9.80;99.90;;;;;;10371238;28;19952;-91
2021/04/01 00:14:20;;;;;;;;;;;9.80;99.90;;;;;;10372636;28;19973;-91
2021/04/01 00:19:21;;;;;;;;;;;9.80;99.90;;;;;;10372946;28;19921;-91
2021/04/01 00:24:22;;;;;;;;;;;9.60;99.90;;;;;;10371596;28;19925;-91
2021/04/01 00:29:24;;;;;;;;;;;9.60;99.90;;;;;;10370701;28;19922;-91
2021/04/01 00:34:25;;;;;;;;;;;9.60;99.90;;;;;;10371435;28;19925;-91
2021/04/01 00:39:26;;;;;;;;;;;9.30;99.90;;;;;;10371831;28;19976;-91
2021/04/01 00:44:28;;;;;;;;;;;9.30;99.90;;;;;;10354632;28;19921;-91
2021/04/01 00:49:32;;;;;;;;;;;9.30;99.90;;;;;;10378369;28;20419;-91
2021/04/01 00:54:34;;;;;;;;;;;9.20;99.90;;;;;;10378020;28;19952;-91
2021/04/01 00:59:35;;;;;;;;;;;9.10;99.90;;;;;;10378664;28;19921;-91
2021/04/01 01:04:36;;;;;;;;;;;9.10;99.90;;;;;;10378692;28;19925;-91
2021/04/01 01:09:38;;;;;;;;;;;9.00;99.90;;;;;;10378927;28;20414;-91
2021/04/01 01:14:39;;;;;;;;;;;9.00;99.90;;;;;;10360907;28;19921;-91
2021/04/01 01:19:45;;;;;;;;;;;8.90;99.90;;;;;;10377156;28;19965;-91
2021/04/01 01:24:46;;;;;;;;;;;8.80;99.90;;;;;;10377606;28;19929;-91
2021/04/01 01:29:48;;;;;;;;;;;8.80;99.90;;;;;;10376873;28;19968;-91
2021/04/01 01:34:49;;;;;;;;;;;8.60;99.90;;;;;;10376735;28;20326;-91
2021/04/01 01:39:51;;;;;;;;;;;8.50;99.90;;;;;;10358876;28;19922;-91
2021/04/01 01:44:52;;;;;;;;;;;8.60;99.90;;;;;;10358002;28;20422;-91
2021/04/01 01:49:53;;;;;;;;;;;8.60;99.90;;;;;;10374540;28;20398;-91
2021/04/01 01:54:55;;;;;;;;;;;8.40;99.90;;;;;;10374554;28;20008;-91
2021/04/01 01:59:56;;;;;;;;;;;8.30;99.90;;;;;;10374340;28;19925;-91
2021/04/01 02:04:57;;;;;;;;;;;8.30;99.90;;;;;;10377434;28;20299;-91
2021/04/01 02:09:59;;;;;;;;;;;8.20;99.90;;;;;;10360594;28;19956;-90
2021/04/01 02:15:00;;;;;;;;;;;8.20;99.90;;;;;;10360602;28;19921;-91
2021/04/01 02:20:02;;;;;;;;;;;8.20;99.90;;;;;;10336749;28;20014;-91
2021/04/01 02:25:04;;;;;;;;;;;8.20;99.90;;;;;;10337497;28;19922;-90
2021/04/01 02:30:06;;;;;;;;;;;8.10;99.90;;;;;;10339525;28;19972;-91
2021/04/01 02:35:08;;;;;;;;;;;8.10;99.90;;;;;;10376595;28;19929;-90
2021/04/01 02:40:10;;;;;;;;;;;7.90;99.90;;;;;;10376983;28;19976;-91
2021/04/01 02:45:12;;;;;;;;;;;7.70;99.90;;;;;;10359448;28;19961;-91
2021/04/01 02:50:13;;;;;;;;;;;7.80;99.90;;;;;;10376575;28;19968;-91
2021/04/01 02:55:15;;;;;;;;;;;7.90;99.90;;;;;;10376040;28;19972;-91
2021/04/01 03:00:19;;;;;;;;;;;7.80;99.90;;;;;;10375809;28;20369;-91
2021/04/01 03:05:21;;;;;;;;;;;7.80;99.90;;;;;;10375469;28;19968;-91
2021/04/01 03:10:22;;;;;;;;;;;7.80;99.90;;;;;;10375032;28;19925;-91
2021/04/01 03:15:23;;;;;;;;;;;7.80;99.90;;;;;;10374075;28;19987;-91
2021/04/01 03:20:25;;;;;;;;;;;7.80;99.90;;;;;;10373353;28;19952;-91
2021/04/01 03:25:26;;;;;;;;;;;7.80;99.90;;;;;;10373216;28;20259;-91
2021/04/01 03:30:31;;;;;;;;;;;7.80;99.90;;;;;;10373075;28;20019;-91
2021/04/01 03:35:32;;;;;;;;;;;7.70;99.90;;;;;;10372126;28;20638;-91
2021/04/01 03:40:34;;;;;;;;;;;7.70;99.90;;;;;;10388389;28;19968;-91
2021/04/01 03:45:36;;;;;;;;;;;7.60;99.90;;;;;;10358625;28;20365;-91
2021/04/01 03:50:37;;;;;;;;;;;7.70;99.90;;;;;;10354165;28;19996;-91
2021/04/01 03:55:40;;;;;;;;;;;7.70;99.90;;;;;;10371365;28;20368;-90
2021/04/01 04:00:44;;;;;;;;;;;7.70;99.90;;;;;;10372662;28;20012;-91
2021/04/01 04:11:03;;;;;;;;;;;7.50;99.90;;;;;;10369866;28;19925;-90
2021/04/01 04:16:05;;;;;;;;;;;7.60;99.90;;;;;;10369909;28;19967;-89
2021/04/01 04:21:06;;;;;;;;;;;7.50;99.90;;;;;;10373716;28;20391;-90
2021/04/01 04:26:09;;;;;;;;;;;7.10;99.90;;;;;;10379349;28;19983;-91
2021/04/01 04:31:11;;;;;;;;;;;7.10;99.90;;;;;;10362302;28;19921;-90
2021/04/01 04:36:12;;;;;;;;;;;7.20;99.90;;;;;;10361974;28;19933;-90
2021/04/01 04:41:13;;;;;;;;;;;7.30;99.90;;;;;;10379582;28;19928;-91
2021/04/01 04:46:15;;;;;;;;;;;7.30;99.90;;;;;;10376830;28;19972;-91
2021/04/01 04:51:16;;;;;;;;;;;7.40;99.90;;;;;;10375305;28;19968;-91
2021/04/01 04:56:21;;;;;;;;;;;7.40;99.90;;;;;;10391724;28;19971;-91
2021/04/01 05:11:40;;;;;;;;;;;6.80;99.90;;;;;;10376180;28;20394;-92
2021/04/01 05:16:41;;;;;;;;;;;6.90;99.90;;;;;;10358796;28;20357;-91
2021/04/01 05:31:55;;;;;;;;;;;7.20;99.90;;;;;;10373262;28;19921;-91
2021/04/01 05:36:58;;;;;;;;;;;7.40;99.90;;;;;;10390536;28;19921;-91
2021/04/01 05:42:00;;;;;;;;;;;7.50;99.90;;;;;;10375548;28;19929;-91
2021/04/01 06:02:41;;;;;;;;;;;8.20;99.90;;;;;;10374132;28;19921;-91
2021/04/01 06:07:43;;;;;;;;;;;8.40;99.90;;;;;;10373582;28;19925;-91
2021/04/01 06:12:44;;;;;;;;;;;8.80;99.90;;;;;;10373925;28;19921;-91
2021/04/01 06:17:46;;;;;;;;;;;9.10;99.90;;;;;;10356474;28;20383;-91
2021/04/01 06:22:52;;;;;;;;;;;9.30;99.90;;;;;;10383643;28;19975;-92
2021/04/01 06:28:10;;;;;;;;;;;9.10;99.90;;;;;;10368702;28;19921;-91
2021/04/01 06:33:21;;;;;;;;;;;9.30;99.90;;;;;;10372224;28;19983;-91
2021/04/01 06:44:54;;;;;;;;;;;9.60;99.90;;;;;;10334897;28;19909;-91
2021/04/01 06:56:19;;;;;;;;;;;9.80;99.90;;;;;;10361215;28;19909;-89
2021/04/01 07:07:28;;;;;;;;;;;10.20;99.90;;;;;;10366839;28;19921;-89
2021/04/01 07:12:50;;;;;;;;;;;10.30;99.90;;;;;;10356433;28;20329;-91
2021/04/01 07:18:02;;;;;;;;;;;10.50;99.90;;;;;;10351102;28;19960;-88
2021/04/01 07:23:56;;;;;;;;;;;10.70;99.90;;;;;;10327762;28;20009;-88
2021/04/01 07:49:55;;;;;;;;;;;11.70;99.90;;;;;;10329048;28;20278;-84
2021/04/01 08:05:30;;;;;;;;;;;12.90;99.90;;;;;;10324442;28;19975;-87
2021/04/01 08:10:35;;;;;;;;;;;12.70;99.90;;;;;;10334350;28;20415;-87
2021/04/01 08:15:42;;;;;;;;;;;13.10;99.90;;;;;;10326441;28;20016;-87
2021/04/01 08:20:45;;;;;;;;;;;13.40;99.90;;;;;;10367259;28;19925;-87
2021/04/01 08:31:53;;;;;;;;;;;14.00;99.90;;;;;;10367977;28;19928;-87
2021/04/01 08:37:15;;;;;;;;;;;14.40;99.80;;;;;;10366972;28;19921;-86
2021/04/01 08:42:36;;;;;;;;;;;14.80;97.80;;;;;;10367212;28;20363;-87
2021/04/01 08:48:16;;;;;;;;;;;14.80;96.10;;;;;;10367096;28;20407;-87
2021/04/01 08:53:18;;;;;;;;;;;15.10;93.50;;;;;;10367791;28;19925;-87
2021/04/01 08:58:22;;;;;;;;;;;15.60;91.60;;;;;;10366690;28;20306;-87
2021/04/01 09:03:30;;;;;;;;;;;16.10;86.90;;;;;;10366505;28;20374;-87
2021/04/01 09:08:35;;;;;;;;;;;16.40;81.80;;;;;;10369811;28;20639;-87
2021/04/01 09:13:44;;;;;;;;;;;16.60;79.70;;;;;;10355773;28;19968;-90
2021/04/01 09:18:46;;;;;;;;;;;17.00;74.80;;;;;;10374437;28;19965;-89
2021/04/01 09:23:55;;;;;;;;;;;17.40;70.70;;;;;;10374419;28;19961;-89
2021/04/01 09:29:04;;;;;;;;;;;17.70;67.00;;;;;;10373119;28;20363;-89
2021/04/01 09:34:06;;;;;;;;;;;17.90;65.20;;;;;;10356245;28;19929;-89
2021/04/01 09:39:26;;;;;;;;;;;18.30;62.70;;;;;;10372574;28;19952;-83
2021/04/01 09:44:28;;;;;;;;;;;18.50;61.00;;;;;;10347543;28;19930;-83
2021/04/01 09:49:51;;;;;;;;;;;18.90;59.90;;;;;;10379424;28;19969;-84
2021/04/01 09:54:59;;;;;;;;;;;19.50;53.20;;;;;;10363094;28;19964;-83
2021/04/01 10:00:15;;;;;;;;;;;20.00;50.10;;;;;;10367954;28;19925;-83
2021/04/01 10:05:18;;;;;;;;;;;20.20;49.20;;;;;;10369296;28;19922;-84
2021/04/01 10:10:29;;;;;;;;;;;20.40;48.30;;;;;;10368915;28;19973;-84
2021/04/01 10:15:31;;;;;;;;;;;20.60;47.00;;;;;;10368568;28;19960;-84
2021/04/01 10:20:34;;;;;;;;;;;20.70;46.50;;;;;;10368256;28;20450;-83
2021/04/01 10:25:47;;;;;;;;;;;20.70;45.70;;;;;;10359810;28;20327;-83
2021/04/01 10:30:50;;;;;;;;;;;20.80;45.80;;;;;;10327819;28;19956;-83
2021/04/01 10:35:54;;;;;;;;;;;21.10;43.60;;;;;;10328955;28;19921;-83
2021/04/01 10:41:02;;;;;;;;;;;21.10;43.80;;;;;;10310005;28;20009;-83
2021/04/01 10:46:05;;;;;;;;;;;21.40;42.40;;;;;;10327383;28;19960;-83
2021/04/01 10:51:08;;;;;;;;;;;21.40;42.40;;;;;;10327102;28;19922;-84
2021/04/01 10:56:11;;;;;;;;;;;21.50;42.50;;;;;;10326633;28;19976;-83
2021/04/01 11:01:12;;;;;;;;;;;21.60;42.50;;;;;;10309738;28;19984;-83
2021/04/01 11:06:14;;;;;;;;;;;21.40;41.90;;;;;;10326660;28;20323;-84
2021/04/01 11:11:15;;;;;;;;;;;21.20;41.40;;;;;;10325772;28;19957;-83
2021/04/01 11:16:18;;;;;;;;;;;21.30;40.80;;;;;;10326402;28;19960;-83
2021/04/01 11:21:20;;;;;;;;;;;21.40;41.00;;;;;;10326140;28;19984;-83
2021/04/01 11:26:28;;;;;;;;;;;21.50;41.10;;;;;;10341219;28;19925;-83
2021/04/01 11:31:29;;;;;;;;;;;21.60;39.10;;;;;;10365249;28;20342;-83
2021/04/01 11:36:41;;;;;;;;;;;21.40;39.30;;;;;;10366110;28;20291;-83
2021/04/01 11:41:47;;;;;;;;;;;21.30;38.90;;;;;;10365753;28;19928;-83
2021/04/01 11:46:53;;;;;;;;;;;21.40;37.70;;;;;;10366365;28;19977;-83
2021/04/01 11:51:55;;;;;;;;;;;21.60;38.40;;;;;;10365701;28;20327;-83
2021/04/01 11:56:57;;;;;;;;;;;21.80;37.60;;;;;;10365056;28;19995;-83
2021/04/01 12:02:10;;;;;;;;;;;21.60;37.50;;;;;;10366023;28;20012;-83
2021/04/01 12:07:12;;;;;;;;;;;21.60;37.20;;;;;;10365646;28;19925;-83
2021/04/01 12:12:13;;;;;;;;;;;21.70;37.40;;;;;;10363826;28;19968;-84
2021/04/01 12:17:15;;;;;;;;;;;21.80;37.30;;;;;;10347754;28;19921;-83
2021/04/01 12:22:16;;;;;;;;;;;21.90;35.80;;;;;;10365552;28;20272;-83
2021/04/01 12:27:25;;;;;;;;;;;21.80;35.00;;;;;;10364739;28;19967;-83
2021/04/01 12:32:28;;;;;;;;;;;21.80;35.00;;;;;;10347634;28;19921;-84
2021/04/01 12:37:29;;;;;;;;;;;21.90;33.80;;;;;;10363543;28;19975;-83
2021/04/01 12:42:33;;;;;;;;;;;21.70;34.20;;;;;;10368754;28;20421;-83
2021/04/01 12:47:35;;;;;;;;;;;21.70;34.60;;;;;;10372395;28;20330;-83
2021/04/01 12:52:53;;;;;;;;;;;21.80;34.10;;;;;;10372150;28;19964;-83
2021/04/01 12:57:55;;;;;;;;;;;21.80;35.50;;;;;;10372558;28;20311;-83
2021/04/01 13:02:57;;;;;;;;;;;21.90;35.10;;;;;;10372993;28;19960;-83
2021/04/01 13:13:18;;;;;;;;;;;22.00;34.80;;;;;;10371979;28;19994;-84
2021/04/01 13:18:20;;;;;;;;;;;22.20;34.30;;;;;;10371418;28;19965;-83
2021/04/01 13:28:26;;;;;;;;;;;22.10;34.70;;;;;;10366623;28;19964;-84
2021/04/01 13:33:50;;;;;;;;;;;22.20;33.00;;;;;;10385819;28;19921;-84
2021/04/01 13:38:52;;;;;;;;;;;22.10;33.60;;;;;;10370087;28;20003;-83
2021/04/01 13:43:56;;;;;;;;;;;22.20;34.80;;;;;;10370714;28;19929;-84
2021/04/01 13:48:58;;;;;;;;;;;22.30;35.30;;;;;;10370379;28;19921;-84
2021/04/01 14:10:06;;;;;;;;;;;22.00;35.50;;;;;;10381817;28;19964;-81
2021/04/01 14:15:08;;;;;;;;;;;22.00;36.40;;;;;;10351954;28;19983;-81
2021/04/01 14:20:11;;;;;;;;;;;22.10;36.40;;;;;;10368217;28;19942;-81
2021/04/01 14:25:23;;;;;;;;;;;22.30;36.40;;;;;;10368766;28;19956;-81
2021/04/01 14:30:24;;;;;;;;;;;22.30;36.20;;;;;;10368271;28;19921;-81
2021/04/01 14:35:26;;;;;;;;;;;22.10;36.00;;;;;;10368312;28;20001;-81
2021/04/01 14:40:31;;;;;;;;;;;22.10;36.50;;;;;;10368220;28;19921;-81
2021/04/01 14:45:32;;;;;;;;;;;22.00;37.30;;;;;;10362097;28;19972;-82
2021/04/01 14:50:34;;;;;;;;;;;22.00;37.40;;;;;;10364145;28;20080;-82
2021/04/01 14:55:35;;;;;;;;;;;21.90;37.50;;;;;;10366330;28;19921;-82
2021/04/01 15:00:40;;;;;;;;;;;21.80;37.20;;;;;;10363030;28;20823;-81
2021/04/01 15:05:43;;;;;;;;;;;21.90;37.40;;;;;;10363264;28;19996;-81
2021/04/01 15:10:48;;;;;;;;;;;21.90;38.10;;;;;;10365223;28;20773;-81
2021/04/01 15:15:49;;;;;;;;;;;21.80;38.40;;;;;;10364104;28;20323;-80
2021/04/01 15:20:51;;;;;;;;;;;21.60;38.60;;;;;;10324826;28;20283;-81
2021/04/01 15:25:53;;;;;;;;;;;21.60;39.10;;;;;;10326028;28;19969;-81
2021/04/01 15:30:54;;;;;;;;;;;21.50;39.20;;;;;;10324700;28;19984;-81
2021/04/01 15:35:56;;;;;;;;;;;21.40;39.50;;;;;;10307306;28;19969;-81
2021/04/01 15:40:57;;;;;;;;;;;21.40;39.90;;;;;;10307180;28;19922;-81
2021/04/01 15:45:59;;;;;;;;;;;21.30;40.20;;;;;;10323746;28;20065;-81
2021/04/01 15:51:00;;;;;;;;;;;21.30;40.20;;;;;;10324616;28;20016;-81
2021/04/01 15:56:02;;;;;;;;;;;21.20;40.40;;;;;;10324120;28;20016;-81
2021/04/01 16:01:03;;;;;;;;;;;21.30;40.50;;;;;;10323818;28;19953;-81
2021/04/01 16:06:05;;;;;;;;;;;21.10;41.30;;;;;;10324020;28;19984;-81
2021/04/01 16:11:07;;;;;;;;;;;20.90;42.10;;;;;;10324118;28;19957;-83
2021/04/01 16:16:08;;;;;;;;;;;20.70;42.00;;;;;;10330367;28;20004;-83
2021/04/01 16:21:09;;;;;;;;;;;20.60;42.30;;;;;;10372792;28;19921;-83
2021/04/01 16:26:11;;;;;;;;;;;20.40;42.90;;;;;;10372806;28;20461;-83
2021/04/01 16:31:15;;;;;;;;;;;20.30;43.10;;;;;;10372433;28;19972;-83
2021/04/01 16:36:18;;;;;;;;;;;20.10;43.40;;;;;;10372400;28;20000;-84
2021/04/01 16:41:20;;;;;;;;;;;19.90;44.10;;;;;;10372398;28;20052;-83
2021/04/01 16:46:21;;;;;;;;;;;19.80;44.50;;;;;;10369196;28;19952;-83
2021/04/01 16:51:23;;;;;;;;;;;19.80;44.80;;;;;;10371361;28;20387;-83
2021/04/01 16:56:26;;;;;;;;;;;19.50;45.20;;;;;;10370838;28;19960;-83
2021/04/01 17:01:27;;;;;;;;;;;19.30;45.90;;;;;;10370052;28;20441;-83
2021/04/01 17:06:29;;;;;;;;;;;19.20;46.60;;;;;;10352824;28;19973;-85
2021/04/01 17:11:30;;;;;;;;;;;19.00;47.80;;;;;;10370499;28;19995;-85
2021/04/01 17:16:31;;;;;;;;;;;18.80;48.40;;;;;;10363600;28;20017;-84
2021/04/01 17:21:33;;;;;;;;;;;18.70;48.90;;;;;;10330056;28;19952;-85
2021/04/01 17:26:35;;;;;;;;;;;18.50;49.90;;;;;;10326460;28;19922;-84
2021/04/01 17:31:37;;;;;;;;;;;18.30;50.70;;;;;;10328965;28;20340;-85
2021/04/01 17:36:38;;;;;;;;;;;18.10;51.60;;;;;;10329122;28;19960;-85
2021/04/01 17:41:39;;;;;;;;;;;17.90;52.10;;;;;;10329506;28;20004;-85
2021/04/01 17:46:40;;;;;;;;;;;17.70;52.70;;;;;;10329552;28;20004;-85
2021/04/01 17:51:42;;;;;;;;;;;17.50;53.20;;;;;;10329729;28;20391;-85
2021/04/01 17:56:45;;;;;;;;;;;17.30;53.70;;;;;;10330836;28;19953;-86
2021/04/01 18:01:48;;;;;;;;;;;17.00;54.20;;;;;;10329446;28;19925;-86
2021/04/01 18:28:01;;;;;;;;;;;16.10;55.60;;;;;;10368729;28;19929;-85
2021/04/01 18:33:14;;;;;;;;;;;16.00;55.50;;;;;;10350943;28;19987;-85
2021/04/01 18:43:52;;;;;;;;;;;15.70;55.20;;;;;;10294013;28;20012;-84
2021/04/01 18:48:57;;;;;;;;;;;15.50;55.50;;;;;;10349958;28;19975;-84
2021/04/01 18:54:02;;;;;;;;;;;15.40;55.70;;;;;;10366742;28;19925;-84
2021/04/01 18:59:07;;;;;;;;;;;15.20;56.10;;;;;;10367159;28;19953;-85
2021/04/01 19:04:10;;;;;;;;;;;15.10;56.20;;;;;;10366467;28;20010;-84
2021/04/01 19:09:18;;;;;;;;;;;15.00;56.80;;;;;;10366049;28;19949;-85
2021/04/01 19:24:59;;;;;;;;;;;14.60;58.30;;;;;;10365710;28;20008;-85
2021/04/01 19:30:01;;;;;;;;;;;14.40;59.30;;;;;;10365592;28;19933;-85
2021/04/01 19:35:03;;;;;;;;;;;14.20;61.00;;;;;;10365746;28;20011;-84
2021/04/01 19:40:05;;;;;;;;;;;13.90;62.30;;;;;;10365588;28;19932;-84
2021/04/01 19:45:08;;;;;;;;;;;13.80;63.60;;;;;;10365923;28;19957;-85
2021/04/01 19:50:11;;;;;;;;;;;13.60;64.60;;;;;;10347496;28;19925;-84
2021/04/01 19:55:16;;;;;;;;;;;13.50;66.00;;;;;;10366441;28;20011;-85
2021/04/01 20:00:19;;;;;;;;;;;13.40;67.00;;;;;;10366604;28;19921;-85
2021/04/01 20:05:21;;;;;;;;;;;13.40;68.70;;;;;;10367261;28;19925;-86
2021/04/01 20:10:23;;;;;;;;;;;13.30;69.30;;;;;;10348573;28;19967;-85
2021/04/01 20:15:25;;;;;;;;;;;13.20;70.60;;;;;;10366532;28;20386;-85
2021/04/01 20:20:27;;;;;;;;;;;13.00;72.10;;;;;;10366483;28;19925;-83
2021/04/01 20:25:28;;;;;;;;;;;12.80;74.00;;;;;;10348972;28;20018;-84
2021/04/01 20:30:30;;;;;;;;;;;12.80;76.00;;;;;;10365646;28;20000;-84
2021/04/01 20:35:33;;;;;;;;;;;12.50;77.20;;;;;;10365888;28;19944;-84
2021/04/01 20:40:34;;;;;;;;;;;12.40;81.00;;;;;;10365290;28;20333;-84
2021/04/01 20:45:37;;;;;;;;;;;12.30;83.70;;;;;;10365298;28;19964;-84
2021/04/01 20:50:38;;;;;;;;;;;12.30;83.60;;;;;;10365109;28;20015;-84
2021/04/01 20:55:40;;;;;;;;;;;12.20;86.70;;;;;;10365333;28;20268;-84
2021/04/01 21:00:43;;;;;;;;;;;12.00;89.60;;;;;;10347687;28;19952;-83
2021/04/01 21:05:45;;;;;;;;;;;11.90;92.70;;;;;;10371655;28;19925;-85
2021/04/01 21:10:47;;;;;;;;;;;11.90;91.40;;;;;;10353230;28;20010;-85
2021/04/01 21:15:50;;;;;;;;;;;11.80;91.40;;;;;;10354519;28;19987;-85
2021/04/01 21:20:52;;;;;;;;;;;11.60;91.50;;;;;;10371886;28;19921;-85
2021/04/01 21:25:53;;;;;;;;;;;11.50;92.70;;;;;;10372224;28;19963;-85
2021/04/01 21:30:56;;;;;;;;;;;11.40;93.20;;;;;;10371903;28;20454;-85
2021/04/01 21:35:58;;;;;;;;;;;11.40;92.50;;;;;;10354165;28;19952;-84
2021/04/01 21:41:00;;;;;;;;;;;11.20;93.40;;;;;;10370688;28;19961;-84
2021/04/01 21:46:03;;;;;;;;;;;11.00;94.00;;;;;;10369724;28;19921;-84
2021/04/01 21:51:05;;;;;;;;;;;10.90;94.90;;;;;;10368303;28;20005;-84
2021/04/01 21:56:07;;;;;;;;;;;10.70;93.90;;;;;;10370203;28;19965;-84
2021/04/01 22:01:08;;;;;;;;;;;10.50;91.00;;;;;;10369441;28;19969;-84
2021/04/01 22:06:10;;;;;;;;;;;10.30;85.50;;;;;;10368578;28;19922;-84
2021/04/01 22:11:12;;;;;;;;;;;10.10;81.40;;;;;;10368844;28;20363;-84
2021/04/01 22:16:13;;;;;;;;;;;10.10;80.60;;;;;;10368356;28;19968;-84
2021/04/01 22:21:15;;;;;;;;;;;10.00;77.70;;;;;;10351279;28;20283;-84
2021/04/01 22:26:17;;;;;;;;;;;9.80;76.60;;;;;;10368585;28;19963;-84
2021/04/01 22:31:19;;;;;;;;;;;9.70;76.90;;;;;;10360505;28;19981;-83
2021/04/01 22:36:21;;;;;;;;;;;9.40;75.80;;;;;;10350935;28;20439;-83
2021/04/01 22:41:25;;;;;;;;;;;9.30;77.40;;;;;;10367714;28;19952;-83
2021/04/01 22:46:27;;;;;;;;;;;9.20;73.90;;;;;;10367387;28;20020;-84
2021/04/01 22:51:28;;;;;;;;;;;9.20;74.60;;;;;;10324898;28;20428;-83
2021/04/01 22:56:30;;;;;;;;;;;9.10;74.50;;;;;;10360946;28;19964;-83
2021/04/01 23:01:31;;;;;;;;;;;8.90;73.60;;;;;;10365015;28;19999;-83
2021/04/01 23:06:32;;;;;;;;;;;8.80;73.70;;;;;;10365604;28;20020;-84
2021/04/01 23:11:34;;;;;;;;;;;8.70;73.40;;;;;;10356042;28;20336;-83
2021/04/01 23:16:35;;;;;;;;;;;8.50;75.40;;;;;;10364016;28;19994;-84
2021/04/01 23:21:36;;;;;;;;;;;8.40;74.10;;;;;;10364360;28;19964;-84
2021/04/01 23:26:39;;;;;;;;;;;8.30;74.60;;;;;;10347509;28;19922;-83
2021/04/01 23:31:40;;;;;;;;;;;8.20;74.10;;;;;;10365203;28;20008;-83
2021/04/01 23:36:41;;;;;;;;;;;8.10;74.60;;;;;;10365554;28;19960;-84
2021/04/01 23:41:43;;;;;;;;;;;8.00;75.90;;;;;;10365833;28;19975;-84
2021/04/01 23:46:44;;;;;;;;;;;7.90;77.00;;;;;;10365490;28;19921;-83
2021/04/01 23:51:46;;;;;;;;;;;7.80;77.80;;;;;;10365353;28;20414;-84
2021/04/01 23:56:47;;;;;;;;;;;7.60;77.60;;;;;;10365057;28;19975;-84
